sensor_id;sensor_type;location;lat;lon;timestamp;pressure;altitude;pressure_sealevel;temperature;humidity
60055;BME280;45930;53.514;55.904;2023-03-11T00:00:52;48981.44;;;-149.77;100.00
60055;BME280;45930;53.514;55.904;2023-03-11T00:01:53;48985.41;;;-149.77;100.00
60055;BME280;45930;53.514;55.904;2023-03-11T00:02:56;48993.31;;;-149.77;100.00
60055;BME280;45930;53.514;55.904;2023-03-11T00:03:57;48971.53;;;-149.77;100.00
60055;BME280;45930;53.514;55.904;2023-03-11T00:04:59;48973.50;;;-149.77;100.00
60055;BME280;45930;53.514;55.904;2023-03-11T00:06:00;48961.63;;;-149.77;100.00
60055;BME280;45930;53.514;55.904;2023-03-11T00:07:05;48983.41;;;-149.77;100.00
60055;BME280;45930;53.514;55.904;2023-03-11T00:08:08;48961.63;;;-149.77;100.00
60055;BME280;45930;53.514;55.904;2023-03-11T00:09:09;48993.31;;;-149.77;100.00
60055;BME280;45930;53.514;55.904;2023-03-11T00:10:14;48969.56;;;-149.77;100.00
60055;BME280;45930;53.514;55.904;2023-03-11T00:11:15;48997.28;;;-149.77;100.00
60055;BME280;45930;53.514;55.904;2023-03-11T00:12:16;49005.19;;;-149.77;100.00
60055;BME280;45930;53.514;55.904;2023-03-11T00:13:16;48999.25;;;-149.77;100.00
60055;BME280;45930;53.514;55.904;2023-03-11T00:14:17;48997.28;;;-149.77;100.00
60055;BME280;45930;53.514;55.904;2023-03-11T00:15:18;49009.16;;;-149.77;100.00
60055;BME280;45930;53.514;55.904;2023-03-11T00:16:19;48999.25;;;-149.77;100.00
60055;BME280;45930;53.514;55.904;2023-03-11T00:17:20;48999.25;;;-149.77;100.00
60055;BME280;45930;53.514;55.904;2023-03-11T00:18:22;48965.59;;;-149.77;100.00
60055;BME280;45930;53.514;55.904;2023-03-11T00:19:26;48973.50;;;-149.77;100.00
60055;BME280;45930;53.514;55.904;2023-03-11T00:20:32;48985.41;;;-149.77;100.00
60055;BME280;45930;53.514;55.904;2023-03-11T00:21:34;48969.56;;;-149.77;100.00
60055;BME280;45930;53.514;55.904;2023-03-11T00:22:34;48947.75;;;-149.77;100.00
60055;BME280;45930;53.514;55.904;2023-03-11T00:23:35;48965.59;;;-149.77;100.00
60055;BME280;45930;53.514;55.904;2023-03-11T00:24:36;48965.59;;;-149.77;100.00
60055;BME280;45930;53.514;55.904;2023-03-11T00:25:37;48971.53;;;-149.77;100.00
60055;BME280;45930;53.514;55.904;2023-03-11T00:26:38;48961.63;;;-149.77;100.00
60055;BME280;45930;53.514;55.904;2023-03-11T00:27:39;48951.72;;;-149.77;100.00
60055;BME280;45930;53.514;55.904;2023-03-11T00:28:40;48977.47;;;-149.77;100.00
60055;BME280;45930;53.514;55.904;2023-03-11T00:29:41;48947.75;;;-149.77;100.00
60055;BME280;45930;53.514;55.904;2023-03-11T00:30:44;48943.81;;;-149.77;100.00
60055;BME280;45930;53.514;55.904;2023-03-11T00:31:45;48973.50;;;-149.77;100.00
60055;BME280;45930;53.514;55.904;2023-03-11T00:32:50;48947.75;;;-149.77;100.00
60055;BME280;45930;53.514;55.904;2023-03-11T00:33:52;48931.91;;;-149.77;100.00
60055;BME280;45930;53.514;55.904;2023-03-11T00:34:52;48931.91;;;-149.77;100.00
60055;BME280;45930;53.514;55.904;2023-03-11T00:35:53;48965.59;;;-149.77;100.00
60055;BME280;45930;53.514;55.904;2023-03-11T00:36:54;48935.88;;;-149.77;100.00
60055;BME280;45930;53.514;55.904;2023-03-11T00:37:57;48925.97;;;-149.77;100.00
60055;BME280;45930;53.514;55.904;2023-03-11T00:38:59;48957.66;;;-149.77;100.00
60055;BME280;45930;53.514;55.904;2023-03-11T00:40:01;48931.91;;;-149.77;100.00
60055;BME280;45930;53.514;55.904;2023-03-11T00:41:03;48918.06;;;-149.77;100.00
60055;BME280;45930;53.514;55.904;2023-03-11T00:42:04;48945.78;;;-149.77;100.00
60055;BME280;45930;53.514;55.904;2023-03-11T00:43:05;48910.13;;;-149.77;100.00
60055;BME280;45930;53.514;55.904;2023-03-11T00:44:05;48904.19;;;-149.77;100.00
60055;BME280;45930;53.514;55.904;2023-03-11T00:45:06;48914.09;;;-149.77;100.00
60055;BME280;45930;53.514;55.904;2023-03-11T00:46:08;48892.31;;;-149.77;100.00
60055;BME280;45930;53.514;55.904;2023-03-11T00:47:12;48925.97;;;-149.77;100.00
60055;BME280;45930;53.514;55.904;2023-03-11T00:48:13;48898.25;;;-149.77;100.00
60055;BME280;45930;53.514;55.904;2023-03-11T00:49:14;48941.81;;;-149.77;100.00
60055;BME280;45930;53.514;55.904;2023-03-11T00:50:27;48890.31;;;-149.77;100.00
60055;BME280;45930;53.514;55.904;2023-03-11T00:51:28;48916.06;;;-149.77;100.00
60055;BME280;45930;53.514;55.904;2023-03-11T00:52:29;48906.16;;;-149.77;100.00
60055;BME280;45930;53.514;55.904;2023-03-11T00:53:29;48914.09;;;-149.77;100.00
60055;BME280;45930;53.514;55.904;2023-03-11T00:54:30;48908.16;;;-149.77;100.00
60055;BME280;45930;53.514;55.904;2023-03-11T00:55:32;48933.91;;;-149.77;100.00
60055;BME280;45930;53.514;55.904;2023-03-11T00:56:33;48894.28;;;-149.77;100.00
60055;BME280;45930;53.514;55.904;2023-03-11T00:57:34;48922.03;;;-149.77;100.00
60055;BME280;45930;53.514;55.904;2023-03-11T00:58:35;48898.25;;;-149.77;100.00
60055;BME280;45930;53.514;55.904;2023-03-11T00:59:36;48908.16;;;-149.77;100.00
60055;BME280;45930;53.514;55.904;2023-03-11T01:00:37;48941.81;;;-149.77;100.00
60055;BME280;45930;53.514;55.904;2023-03-11T01:01:37;48924.00;;;-149.77;100.00
60055;BME280;45930;53.514;55.904;2023-03-11T01:02:38;48922.03;;;-149.77;100.00
60055;BME280;45930;53.514;55.904;2023-03-11T01:03:39;48906.16;;;-149.77;100.00
60055;BME280;45930;53.514;55.904;2023-03-11T01:04:40;48910.13;;;-149.77;100.00
60055;BME280;45930;53.514;55.904;2023-03-11T01:05:41;48908.16;;;-149.77;100.00
60055;BME280;45930;53.514;55.904;2023-03-11T01:06:43;48904.19;;;-149.77;100.00
60055;BME280;45930;53.514;55.904;2023-03-11T01:07:43;48910.13;;;-149.77;100.00
60055;BME280;45930;53.514;55.904;2023-03-11T01:08:44;48910.13;;;-149.77;100.00
60055;BME280;45930;53.514;55.904;2023-03-11T01:09:45;48914.09;;;-149.77;100.00
60055;BME280;45930;53.514;55.904;2023-03-11T01:10:46;48902.22;;;-149.77;100.00
60055;BME280;45930;53.514;55.904;2023-03-11T01:11:46;48886.38;;;-149.77;100.00
60055;BME280;45930;53.514;55.904;2023-03-11T01:12:47;48916.06;;;-149.77;100.00
60055;BME280;45930;53.514;55.904;2023-03-11T01:13:48;48941.81;;;-149.77;100.00
60055;BME280;45930;53.514;55.904;2023-03-11T01:14:49;48933.91;;;-149.77;100.00
60055;BME280;45930;53.514;55.904;2023-03-11T01:15:51;48927.97;;;-149.77;100.00
60055;BME280;45930;53.514;55.904;2023-03-11T01:16:52;48910.13;;;-149.77;100.00
60055;BME280;45930;53.514;55.904;2023-03-11T01:17:54;48900.22;;;-149.77;100.00
60055;BME280;45930;53.514;55.904;2023-03-11T01:18:55;48914.09;;;-149.77;100.00
60055;BME280;45930;53.514;55.904;2023-03-11T01:19:55;48920.03;;;-149.77;100.00
60055;BME280;45930;53.514;55.904;2023-03-11T01:20:56;48906.16;;;-149.77;100.00
60055;BME280;45930;53.514;55.904;2023-03-11T01:21:57;48896.28;;;-149.77;100.00
60055;BME280;45930;53.514;55.904;2023-03-11T01:22:58;48916.06;;;-149.77;100.00
60055;BME280;45930;53.514;55.904;2023-03-11T01:23:58;48900.22;;;-149.77;100.00
60055;BME280;45930;53.514;55.904;2023-03-11T01:24:59;48906.16;;;-149.77;100.00
60055;BME280;45930;53.514;55.904;2023-03-11T01:26:00;48947.75;;;-149.77;100.00
60055;BME280;45930;53.514;55.904;2023-03-11T01:27:01;48924.00;;;-149.77;100.00
60055;BME280;45930;53.514;55.904;2023-03-11T01:28:02;48900.22;;;-149.77;100.00
60055;BME280;45930;53.514;55.904;2023-03-11T01:29:03;48922.03;;;-149.77;100.00
60055;BME280;45930;53.514;55.904;2023-03-11T01:30:04;48914.09;;;-149.77;100.00
60055;BME280;45930;53.514;55.904;2023-03-11T01:31:05;48900.22;;;-149.77;100.00
60055;BME280;45930;53.514;55.904;2023-03-11T01:32:06;48906.16;;;-149.77;100.00
60055;BME280;45930;53.514;55.904;2023-03-11T01:33:09;48888.34;;;-149.77;100.00
60055;BME280;45930;53.514;55.904;2023-03-11T01:34:13;48910.13;;;-149.77;100.00
60055;BME280;45930;53.514;55.904;2023-03-11T01:35:15;48882.41;;;-149.77;100.00
60055;BME280;45930;53.514;55.904;2023-03-11T01:36:16;48898.25;;;-149.77;100.00
60055;BME280;45930;53.514;55.904;2023-03-11T01:37:17;48904.19;;;-149.77;100.00
60055;BME280;45930;53.514;55.904;2023-03-11T01:38:19;48894.28;;;-149.77;100.00
60055;BME280;45930;53.514;55.904;2023-03-11T01:39:20;48912.13;;;-149.77;100.00
60055;BME280;45930;53.514;55.904;2023-03-11T01:40:53;48904.19;;;-149.77;100.00
60055;BME280;45930;53.514;55.904;2023-03-11T01:41:54;48898.25;;;-149.77;100.00
60055;BME280;45930;53.514;55.904;2023-03-11T01:42:56;48904.19;;;-149.77;100.00
60055;BME280;45930;53.514;55.904;2023-03-11T01:43:56;48886.38;;;-149.77;100.00
60055;BME280;45930;53.514;55.904;2023-03-11T01:44:57;48927.97;;;-149.77;100.00
60055;BME280;45930;53.514;55.904;2023-03-11T01:48:02;48882.41;;;-149.77;100.00
60055;BME280;45930;53.514;55.904;2023-03-11T01:49:04;48886.38;;;-149.77;100.00
60055;BME280;45930;53.514;55.904;2023-03-11T01:50:08;48896.28;;;-149.77;100.00
60055;BME280;45930;53.514;55.904;2023-03-11T01:51:11;48912.13;;;-149.77;100.00
60055;BME280;45930;53.514;55.904;2023-03-11T01:52:11;48898.25;;;-149.77;100.00
60055;BME280;45930;53.514;55.904;2023-03-11T01:53:14;48886.38;;;-149.77;100.00
60055;BME280;45930;53.514;55.904;2023-03-11T01:54:20;48916.06;;;-149.77;100.00
60055;BME280;45930;53.514;55.904;2023-03-11T01:55:22;48912.13;;;-149.77;100.00
60055;BME280;45930;53.514;55.904;2023-03-11T01:56:23;48910.13;;;-149.77;100.00
60055;BME280;45930;53.514;55.904;2023-03-11T01:57:24;48888.34;;;-149.77;100.00
60055;BME280;45930;53.514;55.904;2023-03-11T01:58:27;48894.28;;;-149.77;100.00
60055;BME280;45930;53.514;55.904;2023-03-11T01:59:32;48898.25;;;-149.77;100.00
60055;BME280;45930;53.514;55.904;2023-03-11T02:00:36;48854.69;;;-149.77;100.00
60055;BME280;45930;53.514;55.904;2023-03-11T02:01:55;48902.22;;;-149.77;100.00
60055;BME280;45930;53.514;55.904;2023-03-11T02:03:01;48894.28;;;-149.77;100.00
60055;BME280;45930;53.514;55.904;2023-03-11T02:04:06;48882.41;;;-149.77;100.00
60055;BME280;45930;53.514;55.904;2023-03-11T02:05:08;48870.53;;;-149.77;100.00
60055;BME280;45930;53.514;55.904;2023-03-11T02:06:11;48902.22;;;-149.77;100.00
60055;BME280;45930;53.514;55.904;2023-03-11T02:07:14;48896.28;;;-149.77;100.00
60055;BME280;45930;53.514;55.904;2023-03-11T02:08:15;48888.34;;;-149.77;100.00
60055;BME280;45930;53.514;55.904;2023-03-11T02:09:16;48892.31;;;-149.77;100.00
60055;BME280;45930;53.514;55.904;2023-03-11T02:10:17;48890.31;;;-149.77;100.00
60055;BME280;45930;53.514;55.904;2023-03-11T02:11:26;48922.03;;;-149.77;100.00
60055;BME280;45930;53.514;55.904;2023-03-11T02:12:30;48900.22;;;-149.77;100.00
60055;BME280;45930;53.514;55.904;2023-03-11T02:13:33;48906.16;;;-149.77;100.00
60055;BME280;45930;53.514;55.904;2023-03-11T02:14:38;48880.44;;;-149.77;100.00
60055;BME280;45930;53.514;55.904;2023-03-11T02:21:32;48890.31;;;-149.77;100.00
60055;BME280;45930;53.514;55.904;2023-03-11T02:22:33;48870.53;;;-149.77;100.00
60055;BME280;45930;53.514;55.904;2023-03-11T02:25:19;48918.06;;;-149.77;100.00
60055;BME280;45930;53.514;55.904;2023-03-11T02:26:39;48906.16;;;-149.77;100.00
60055;BME280;45930;53.514;55.904;2023-03-11T02:27:44;48914.09;;;-149.77;100.00
60055;BME280;45930;53.514;55.904;2023-03-11T02:28:49;48906.16;;;-149.77;100.00
60055;BME280;45930;53.514;55.904;2023-03-11T02:29:50;48957.66;;;-149.77;100.00
60055;BME280;45930;53.514;55.904;2023-03-11T02:30:54;48981.44;;;-149.77;100.00
60055;BME280;45930;53.514;55.904;2023-03-11T02:31:57;48983.41;;;-149.77;100.00
60055;BME280;45930;53.514;55.904;2023-03-11T02:32:59;48987.38;;;-149.77;100.00
60055;BME280;45930;53.514;55.904;2023-03-11T02:34:02;48953.72;;;-149.77;100.00
60055;BME280;45930;53.514;55.904;2023-03-11T02:35:05;48987.38;;;-149.77;100.00
60055;BME280;45930;53.514;55.904;2023-03-11T02:36:07;48945.78;;;-149.77;100.00
60055;BME280;45930;53.514;55.904;2023-03-11T02:37:27;48983.41;;;-149.77;100.00
60055;BME280;45930;53.514;55.904;2023-03-11T02:38:28;48959.66;;;-149.77;100.00
60055;BME280;45930;53.514;55.904;2023-03-11T02:39:34;48967.56;;;-149.77;100.00
60055;BME280;45930;53.514;55.904;2023-03-11T02:40:55;48937.88;;;-149.77;100.00
60055;BME280;45930;53.514;55.904;2023-03-11T02:41:57;48941.81;;;-149.77;100.00
60055;BME280;45930;53.514;55.904;2023-03-11T02:43:00;48983.41;;;-149.77;100.00
60055;BME280;45930;53.514;55.904;2023-03-11T02:44:02;48927.97;;;-149.77;100.00
60055;BME280;45930;53.514;55.904;2023-03-11T02:45:08;48963.63;;;-149.77;100.00
60055;BME280;45930;53.514;55.904;2023-03-11T02:46:10;48947.75;;;-149.77;100.00
60055;BME280;45930;53.514;55.904;2023-03-11T02:47:12;48951.72;;;-149.77;100.00
60055;BME280;45930;53.514;55.904;2023-03-11T02:48:13;48963.63;;;-149.77;100.00
60055;BME280;45930;53.514;55.904;2023-03-11T02:49:14;48961.63;;;-149.77;100.00
60055;BME280;45930;53.514;55.904;2023-03-11T02:50:16;48959.66;;;-149.77;100.00
60055;BME280;45930;53.514;55.904;2023-03-11T02:51:18;48969.56;;;-149.77;100.00
60055;BME280;45930;53.514;55.904;2023-03-11T02:52:18;48920.03;;;-149.77;100.00
60055;BME280;45930;53.514;55.904;2023-03-11T02:53:24;48939.84;;;-149.77;100.00
60055;BME280;45930;53.514;55.904;2023-03-11T02:54:25;48943.81;;;-149.77;100.00
60055;BME280;45930;53.514;55.904;2023-03-11T02:55:26;48945.78;;;-149.77;100.00
60055;BME280;45930;53.514;55.904;2023-03-11T02:56:27;48953.72;;;-149.77;100.00
60055;BME280;45930;53.514;55.904;2023-03-11T02:57:28;48955.69;;;-149.77;100.00
60055;BME280;45930;53.514;55.904;2023-03-11T02:58:29;48951.72;;;-149.77;100.00
60055;BME280;45930;53.514;55.904;2023-03-11T02:59:29;48925.97;;;-149.77;100.00
60055;BME280;45930;53.514;55.904;2023-03-11T03:00:30;48945.78;;;-149.77;100.00
60055;BME280;45930;53.514;55.904;2023-03-11T03:01:31;48961.63;;;-149.77;100.00
60055;BME280;45930;53.514;55.904;2023-03-11T03:02:32;48945.78;;;-149.77;100.00
60055;BME280;45930;53.514;55.904;2023-03-11T03:03:33;48987.38;;;-149.77;100.00
60055;BME280;45930;53.514;55.904;2023-03-11T03:04:34;48985.41;;;-149.77;100.00
60055;BME280;45930;53.514;55.904;2023-03-11T03:05:34;48981.44;;;-149.77;100.00
60055;BME280;45930;53.514;55.904;2023-03-11T03:06:35;48975.50;;;-149.77;100.00
60055;BME280;45930;53.514;55.904;2023-03-11T03:07:36;48945.78;;;-149.77;100.00
60055;BME280;45930;53.514;55.904;2023-03-11T03:08:37;48955.69;;;-149.77;100.00
60055;BME280;45930;53.514;55.904;2023-03-11T03:09:38;48959.66;;;-149.77;100.00
60055;BME280;45930;53.514;55.904;2023-03-11T03:10:38;48957.66;;;-149.77;100.00
60055;BME280;45930;53.514;55.904;2023-03-11T03:11:39;48969.56;;;-149.77;100.00
60055;BME280;45930;53.514;55.904;2023-03-11T03:12:40;48977.47;;;-149.77;100.00
60055;BME280;45930;53.514;55.904;2023-03-11T03:13:41;48967.56;;;-149.77;100.00
60055;BME280;45930;53.514;55.904;2023-03-11T03:14:42;48977.47;;;-149.77;100.00
60055;BME280;45930;53.514;55.904;2023-03-11T03:15:42;48959.66;;;-149.77;100.00
60055;BME280;45930;53.514;55.904;2023-03-11T03:16:43;48969.56;;;-149.77;100.00
60055;BME280;45930;53.514;55.904;2023-03-11T03:17:44;48971.53;;;-149.77;100.00
60055;BME280;45930;53.514;55.904;2023-03-11T03:18:45;48947.75;;;-149.77;100.00
60055;BME280;45930;53.514;55.904;2023-03-11T03:19:46;48961.63;;;-149.77;100.00
60055;BME280;45930;53.514;55.904;2023-03-11T03:20:47;48957.66;;;-149.77;100.00
60055;BME280;45930;53.514;55.904;2023-03-11T03:21:47;48951.72;;;-149.77;100.00
60055;BME280;45930;53.514;55.904;2023-03-11T03:22:49;48967.56;;;-149.77;100.00
60055;BME280;45930;53.514;55.904;2023-03-11T03:23:50;48985.41;;;-149.77;100.00
60055;BME280;45930;53.514;55.904;2023-03-11T03:24:51;48983.41;;;-149.77;100.00
60055;BME280;45930;53.514;55.904;2023-03-11T03:25:52;48957.66;;;-149.77;100.00
60055;BME280;45930;53.514;55.904;2023-03-11T03:26:53;48971.53;;;-149.77;100.00
60055;BME280;45930;53.514;55.904;2023-03-11T03:27:53;48953.72;;;-149.77;100.00
60055;BME280;45930;53.514;55.904;2023-03-11T03:28:54;48957.66;;;-149.77;100.00
60055;BME280;45930;53.514;55.904;2023-03-11T03:29:55;48997.28;;;-149.77;100.00
60055;BME280;45930;53.514;55.904;2023-03-11T03:31:02;48997.28;;;-149.77;100.00
60055;BME280;45930;53.514;55.904;2023-03-11T03:32:03;48995.31;;;-149.77;100.00
60055;BME280;45930;53.514;55.904;2023-03-11T03:33:05;48969.56;;;-149.77;100.00
60055;BME280;45930;53.514;55.904;2023-03-11T03:34:07;48975.50;;;-149.77;100.00
60055;BME280;45930;53.514;55.904;2023-03-11T03:35:08;48997.28;;;-149.77;100.00
60055;BME280;45930;53.514;55.904;2023-03-11T03:36:11;49005.19;;;-149.77;100.00
60055;BME280;45930;53.514;55.904;2023-03-11T03:37:13;48971.53;;;-149.77;100.00
60055;BME280;45930;53.514;55.904;2023-03-11T03:38:13;49007.19;;;-149.77;100.00
60055;BME280;45930;53.514;55.904;2023-03-11T03:39:14;48991.34;;;-149.77;100.00
60055;BME280;45930;53.514;55.904;2023-03-11T03:40:15;48989.34;;;-149.77;100.00
60055;BME280;45930;53.514;55.904;2023-03-11T03:41:16;48955.69;;;-149.77;100.00
60055;BME280;45930;53.514;55.904;2023-03-11T03:42:17;48963.63;;;-149.77;100.00
60055;BME280;45930;53.514;55.904;2023-03-11T03:43:18;48981.44;;;-149.77;100.00
60055;BME280;45930;53.514;55.904;2023-03-11T03:44:18;48981.44;;;-149.77;100.00
60055;BME280;45930;53.514;55.904;2023-03-11T03:45:19;48995.31;;;-149.77;100.00
60055;BME280;45930;53.514;55.904;2023-03-11T03:46:20;49005.19;;;-149.77;100.00
60055;BME280;45930;53.514;55.904;2023-03-11T03:47:21;49017.09;;;-149.77;100.00
60055;BME280;45930;53.514;55.904;2023-03-11T03:48:22;48989.34;;;-149.77;100.00
60055;BME280;45930;53.514;55.904;2023-03-11T03:49:23;48981.44;;;-149.77;100.00
60055;BME280;45930;53.514;55.904;2023-03-11T03:50:23;48983.41;;;-149.77;100.00
60055;BME280;45930;53.514;55.904;2023-03-11T03:51:24;49028.97;;;-149.77;100.00
60055;BME280;45930;53.514;55.904;2023-03-11T03:52:25;48989.34;;;-149.77;100.00
60055;BME280;45930;53.514;55.904;2023-03-11T03:53:26;49017.09;;;-149.77;100.00
60055;BME280;45930;53.514;55.904;2023-03-11T03:54:26;48989.34;;;-149.77;100.00
60055;BME280;45930;53.514;55.904;2023-03-11T03:55:27;49001.25;;;-149.77;100.00
60055;BME280;45930;53.514;55.904;2023-03-11T03:56:28;49027.00;;;-149.77;100.00
60055;BME280;45930;53.514;55.904;2023-03-11T03:57:29;49007.19;;;-149.77;100.00
60055;BME280;45930;53.514;55.904;2023-03-11T03:58:30;49044.81;;;-149.77;100.00
60055;BME280;45930;53.514;55.904;2023-03-11T03:59:30;49040.84;;;-149.77;98.85
60055;BME280;45930;53.514;55.904;2023-03-11T04:00:31;49058.69;;;-149.77;98.63
60055;BME280;45930;53.514;55.904;2023-03-11T04:01:33;49064.63;;;-149.77;98.25
60055;BME280;45930;53.514;55.904;2023-03-11T04:02:34;49068.59;;;-149.77;97.18
60055;BME280;45930;53.514;55.904;2023-03-11T04:03:35;49046.78;;;-149.77;96.61
60055;BME280;45930;53.514;55.904;2023-03-11T04:04:38;49086.41;;;-149.77;94.92
60055;BME280;45930;53.514;55.904;2023-03-11T04:05:39;49076.50;;;-149.77;93.71
60055;BME280;45930;53.514;55.904;2023-03-11T04:06:41;49104.25;;;-149.77;93.73
60055;BME280;45930;53.514;55.904;2023-03-11T04:07:41;49118.09;;;-149.77;93.92
60055;BME280;45930;53.514;55.904;2023-03-11T04:08:42;49120.09;;;-149.77;92.76
60055;BME280;45930;53.514;55.904;2023-03-11T04:09:43;49098.28;;;-149.77;91.71
60055;BME280;45930;53.514;55.904;2023-03-11T04:10:44;49096.31;;;-149.77;90.52
60055;BME280;45930;53.514;55.904;2023-03-11T04:11:55;49145.84;;;-149.77;88.29
60055;BME280;45930;53.514;55.904;2023-03-11T04:12:56;49145.84;;;-149.77;87.49
60055;BME280;45930;53.514;55.904;2023-03-11T04:13:57;49147.81;;;-149.77;86.10
60055;BME280;45930;53.514;55.904;2023-03-11T04:14:58;49139.91;;;-149.77;86.37
60055;BME280;45930;53.514;55.904;2023-03-11T04:15:58;49139.91;;;-149.77;86.48
60055;BME280;45930;53.514;55.904;2023-03-11T04:16:59;49122.06;;;-149.77;85.09
60055;BME280;45930;53.514;55.904;2023-03-11T04:18:00;49130.00;;;-149.77;83.59
60055;BME280;45930;53.514;55.904;2023-03-11T04:19:01;49151.78;;;-149.77;82.60
60055;BME280;45930;53.514;55.904;2023-03-11T04:20:02;49165.63;;;-149.77;78.02
60055;BME280;45930;53.514;55.904;2023-03-11T04:21:04;49157.72;;;-149.77;76.89
60055;BME280;45930;53.514;55.904;2023-03-11T04:22:06;49163.66;;;-149.77;76.57
60055;BME280;45930;53.514;55.904;2023-03-11T04:23:06;49163.66;;;-149.77;76.41
60055;BME280;45930;53.514;55.904;2023-03-11T04:24:07;49167.63;;;-149.77;76.94
60055;BME280;45930;53.514;55.904;2023-03-11T04:25:08;49203.28;;;-149.77;77.20
60055;BME280;45930;53.514;55.904;2023-03-11T04:26:09;49171.59;;;-149.77;76.85
60055;BME280;45930;53.514;55.904;2023-03-11T04:27:10;49173.56;;;-149.77;75.58
60055;BME280;45930;53.514;55.904;2023-03-11T04:28:10;49187.44;;;-149.77;72.23
60055;BME280;45930;53.514;55.904;2023-03-11T04:29:11;49195.34;;;-149.77;72.09
60055;BME280;45930;53.514;55.904;2023-03-11T04:30:12;49215.16;;;-149.77;72.65
60055;BME280;45930;53.514;55.904;2023-03-11T04:31:13;49211.19;;;-149.77;71.47
60055;BME280;45930;53.514;55.904;2023-03-11T04:32:14;49193.38;;;-149.77;72.84
60055;BME280;45930;53.514;55.904;2023-03-11T04:33:14;49213.19;;;-149.77;70.65
60055;BME280;45930;53.514;55.904;2023-03-11T04:34:15;49233.00;;;-149.77;70.89
60055;BME280;45930;53.514;55.904;2023-03-11T04:35:16;49225.06;;;-149.77;71.54
60055;BME280;45930;53.514;55.904;2023-03-11T04:36:17;49211.19;;;-149.77;70.74
60055;BME280;45930;53.514;55.904;2023-03-11T04:37:17;49211.19;;;-149.77;68.58
60055;BME280;45930;53.514;55.904;2023-03-11T04:38:18;49215.16;;;-149.77;67.90
60055;BME280;45930;53.514;55.904;2023-03-11T04:39:19;49197.34;;;-149.77;66.33
60055;BME280;45930;53.514;55.904;2023-03-11T04:40:20;49234.97;;;-149.77;65.76
60055;BME280;45930;53.514;55.904;2023-03-11T04:41:21;49207.25;;;-149.77;64.53
60055;BME280;45930;53.514;55.904;2023-03-11T04:42:21;49221.09;;;-149.77;64.79
60055;BME280;45930;53.514;55.904;2023-03-11T04:43:22;49242.91;;;-149.77;63.93
60055;BME280;45930;53.514;55.904;2023-03-11T04:44:23;49233.00;;;-149.77;64.37
60055;BME280;45930;53.514;55.904;2023-03-11T04:45:24;49211.19;;;-149.77;62.81
60055;BME280;45930;53.514;55.904;2023-03-11T04:46:25;49215.16;;;-149.77;62.54
60055;BME280;45930;53.514;55.904;2023-03-11T04:47:26;49219.13;;;-149.77;61.31
60055;BME280;45930;53.514;55.904;2023-03-11T04:48:27;49219.13;;;-149.77;60.87
60055;BME280;45930;53.514;55.904;2023-03-11T04:49:27;49233.00;;;-149.77;61.51
60055;BME280;45930;53.514;55.904;2023-03-11T04:50:28;49219.13;;;-149.77;61.72
60055;BME280;45930;53.514;55.904;2023-03-11T04:51:29;49223.09;;;-149.77;61.33
60055;BME280;45930;53.514;55.904;2023-03-11T04:52:30;49238.94;;;-149.77;60.86
60055;BME280;45930;53.514;55.904;2023-03-11T04:53:31;49227.03;;;-149.77;60.95
60055;BME280;45930;53.514;55.904;2023-03-11T04:54:32;49248.84;;;-149.77;60.95
60055;BME280;45930;53.514;55.904;2023-03-11T04:55:32;49236.94;;;-149.77;60.37
60055;BME280;45930;53.514;55.904;2023-03-11T04:56:33;49250.81;;;-149.77;60.48
60055;BME280;45930;53.514;55.904;2023-03-11T04:57:34;49250.81;;;-149.77;61.48
60055;BME280;45930;53.514;55.904;2023-03-11T04:58:35;49219.13;;;-149.77;60.11
60055;BME280;45930;53.514;55.904;2023-03-11T04:59:36;49256.75;;;-149.77;59.90
60055;BME280;45930;53.514;55.904;2023-03-11T05:00:36;49231.00;;;-149.77;60.26
60055;BME280;45930;53.514;55.904;2023-03-11T05:01:37;49217.13;;;-149.77;59.74
60055;BME280;45930;53.514;55.904;2023-03-11T05:02:38;49219.13;;;-149.77;57.80
60055;BME280;45930;53.514;55.904;2023-03-11T05:03:39;49211.19;;;-149.77;57.48
60055;BME280;45930;53.514;55.904;2023-03-11T05:04:40;49179.50;;;-149.77;57.22
60055;BME280;45930;53.514;55.904;2023-03-11T05:05:41;49213.19;;;-149.77;56.03
60055;BME280;45930;53.514;55.904;2023-03-11T05:06:41;49211.19;;;-149.77;54.59
60055;BME280;45930;53.514;55.904;2023-03-11T05:07:42;49250.81;;;-149.77;54.64
60055;BME280;45930;53.514;55.904;2023-03-11T05:08:43;49227.03;;;-149.77;54.75
60055;BME280;45930;53.514;55.904;2023-03-11T05:09:44;49215.16;;;-149.77;55.41
60055;BME280;45930;53.514;55.904;2023-03-11T05:10:45;49248.84;;;-149.77;54.53
60055;BME280;45930;53.514;55.904;2023-03-11T05:11:45;49234.97;;;-149.77;54.48
60055;BME280;45930;53.514;55.904;2023-03-11T05:12:50;49240.91;;;-149.77;53.57
60055;BME280;45930;53.514;55.904;2023-03-11T05:13:51;49233.00;;;-149.77;53.23
60055;BME280;45930;53.514;55.904;2023-03-11T05:14:51;49236.94;;;-149.77;53.02
60055;BME280;45930;53.514;55.904;2023-03-11T05:15:52;49248.84;;;-149.77;52.47
60055;BME280;45930;53.514;55.904;2023-03-11T05:16:53;49248.84;;;-149.77;52.05
60055;BME280;45930;53.514;55.904;2023-03-11T05:17:54;49229.03;;;-149.77;52.32
60055;BME280;45930;53.514;55.904;2023-03-11T05:18:54;49227.03;;;-149.77;51.27
60055;BME280;45930;53.514;55.904;2023-03-11T05:19:55;49207.25;;;-149.77;49.93
60055;BME280;45930;53.514;55.904;2023-03-11T05:20:57;49207.25;;;-149.77;49.70
60055;BME280;45930;53.514;55.904;2023-03-11T05:21:57;49205.25;;;-149.77;48.64